Time;durP1;ratioP1;P1;durP2;ratioP2;P2;SDS_P1;SDS_P2;PMS_P1;PMS_P2;Temp;Humidity;BMP_temperature;BMP_pressure;BME280_temperature;BME280_humidity;BME280_pressure;Samples;Min_cycle;Max_cycle;Signal;HPM_P1;HPM_P2
2023/07/21 00:03:30;;;;;;;;;;;;;;;14.81;100.00;101158.91;10498130;28;20389;-60
2023/07/21 00:08:33;;;;;;;;;;;;;;;14.86;100.00;101165.56;10497918;28;20302;-60
2023/07/21 00:13:36;;;;;;;;;;;;;;;14.77;100.00;101168.81;10502772;28;19925;-60
2023/07/21 00:18:40;;;;;;;;;;;;;;;14.85;100.00;101163.88;10506271;28;19924;-60
2023/07/21 00:23:43;;;;;;;;;;;;;;;14.87;100.00;101161.13;10506023;28;20371;-60
2023/07/21 00:28:45;;;;;;;;;;;;;;;14.86;100.00;101159.44;10505923;28;19924;-60
2023/07/21 00:33:47;;;;;;;;;;;;;;;14.95;100.00;101160.59;10505583;28;19925;-61
2023/07/21 00:38:50;;;;;;;;;;;;;;;14.97;100.00;101156.91;10505544;28;19935;-61
2023/07/21 00:43:52;;;;;;;;;;;;;;;14.86;100.00;101154.16;10505066;28;19928;-60
2023/07/21 00:48:54;;;;;;;;;;;;;;;14.84;100.00;101143.75;10505034;28;19925;-61
2023/07/21 00:53:57;;;;;;;;;;;;;;;14.71;100.00;101149.97;10505028;28;19925;-61
2023/07/21 00:59:00;;;;;;;;;;;;;;;14.66;100.00;101143.22;10486957;28;19935;-61
2023/07/21 01:04:02;;;;;;;;;;;;;;;14.74;100.00;101145.31;10504605;28;19924;-60
2023/07/21 01:09:06;;;;;;;;;;;;;;;14.75;100.00;101138.28;10504100;28;20371;-60
2023/07/21 01:14:09;;;;;;;;;;;;;;;14.63;100.00;101138.16;10486823;28;19925;-61
2023/07/21 01:19:13;;;;;;;;;;;;;;;14.55;100.00;101137.81;10486099;28;19972;-60
2023/07/21 01:24:20;;;;;;;;;;;;;;;14.53;100.00;101134.44;10485952;28;20283;-60
2023/07/21 01:29:25;;;;;;;;;;;;;;;14.56;100.00;101125.47;10485798;28;20371;-60
2023/07/21 01:34:29;;;;;;;;;;;;;;;14.43;100.00;101122.88;10503399;28;19931;-61
2023/07/21 01:39:34;;;;;;;;;;;;;;;14.52;100.00;101114.31;10485649;28;20003;-61
2023/07/21 01:44:36;;;;;;;;;;;;;;;14.50;100.00;101111.78;10502809;28;19986;-61
2023/07/21 01:49:38;;;;;;;;;;;;;;;14.28;100.00;101107.16;10502683;28;20367;-61
2023/07/21 01:54:44;;;;;;;;;;;;;;;14.28;100.00;101095.78;10502503;28;20260;-60
2023/07/21 01:59:46;;;;;;;;;;;;;;;14.38;100.00;101088.94;10502707;28;19929;-61
2023/07/21 02:04:49;;;;;;;;;;;;;;;14.48;100.00;101087.34;10484565;28;19931;-61
2023/07/21 02:09:52;;;;;;;;;;;;;;;14.10;100.00;101089.97;10501868;28;20275;-60
2023/07/21 02:14:54;;;;;;;;;;;;;;;14.15;100.00;101094.91;10484020;28;20272;-60
2023/07/21 02:19:56;;;;;;;;;;;;;;;14.09;100.00;101096.19;10501609;28;19924;-60
2023/07/21 02:24:59;;;;;;;;;;;;;;;13.97;100.00;101097.00;10501656;28;19929;-60
2023/07/21 02:30:01;;;;;;;;;;;;;;;14.01;100.00;101090.59;10500987;28;19924;-60
2023/07/21 02:35:05;;;;;;;;;;;;;;;14.02;100.00;101093.13;10500397;28;19925;-60
2023/07/21 02:40:08;;;;;;;;;;;;;;;13.95;100.00;101089.19;10483332;28;19925;-61
2023/07/21 02:45:11;;;;;;;;;;;;;;;13.82;100.00;101090.97;10500325;28;19943;-60
2023/07/21 02:50:13;;;;;;;;;;;;;;;13.78;100.00;101076.34;10482595;28;19925;-60
2023/07/21 02:55:17;;;;;;;;;;;;;;;13.70;100.00;101074.19;10465754;28;20406;-60
2023/07/21 03:00:19;;;;;;;;;;;;;;;13.64;100.00;101074.63;10499810;28;20286;-60
2023/07/21 03:05:21;;;;;;;;;;;;;;;13.57;100.00;101069.75;10499592;28;20027;-60
2023/07/21 03:10:24;;;;;;;;;;;;;;;13.57;100.00;101077.63;10499685;28;19924;-60
2023/07/21 03:15:26;;;;;;;;;;;;;;;13.55;100.00;101068.19;10499497;28;19931;-60
2023/07/21 03:20:28;;;;;;;;;;;;;;;13.44;100.00;101071.50;10499167;28;19925;-60
2023/07/21 03:25:32;;;;;;;;;;;;;;;13.55;100.00;101055.88;10481523;28;20028;-60
2023/07/21 03:30:34;;;;;;;;;;;;;;;13.46;100.00;101060.88;10498756;28;19947;-60
2023/07/21 03:35:36;;;;;;;;;;;;;;;13.50;100.00;101071.09;10498854;28;20399;-60
2023/07/21 03:40:38;;;;;;;;;;;;;;;13.27;100.00;101063.84;10498617;28;19925;-60
2023/07/21 03:45:40;;;;;;;;;;;;;;;13.28;100.00;101061.09;10497632;28;19925;-60
2023/07/21 03:50:43;;;;;;;;;;;;;;;13.36;100.00;101066.75;10498133;28;20375;-60
2023/07/21 03:55:45;;;;;;;;;;;;;;;13.31;100.00;101068.78;10480640;28;19935;-60
2023/07/21 04:00:47;;;;;;;;;;;;;;;13.31;100.00;101057.41;10498444;28;19931;-60
2023/07/21 04:05:51;;;;;;;;;;;;;;;13.40;100.00;101061.25;10498054;28;19935;-60
2023/07/21 04:10:53;;;;;;;;;;;;;;;13.24;100.00;101056.97;10497930;28;19968;-60
2023/07/21 04:15:56;;;;;;;;;;;;;;;13.26;100.00;101049.81;10498175;28;19931;-60
2023/07/21 04:20:58;;;;;;;;;;;;;;;13.33;100.00;101051.16;10497835;28;20291;-60
2023/07/21 04:26:00;;;;;;;;;;;;;;;13.35;100.00;101038.75;10498108;28;19935;-60
2023/07/21 04:31:02;;;;;;;;;;;;;;;13.44;100.00;101039.94;10497545;28;19924;-60
2023/07/21 04:36:05;;;;;;;;;;;;;;;13.60;100.00;101038.91;10497479;28;20364;-60
2023/07/21 04:41:07;;;;;;;;;;;;;;;13.47;100.00;101044.16;10479546;28;19925;-60
2023/07/21 04:46:10;;;;;;;;;;;;;;;13.42;100.00;101047.09;10497363;28;20014;-60
2023/07/21 04:51:12;;;;;;;;;;;;;;;13.57;100.00;101042.59;10497114;28;20325;-60
2023/07/21 04:56:14;;;;;;;;;;;;;;;13.55;100.00;101044.50;10497637;28;19929;-60
2023/07/21 05:01:16;;;;;;;;;;;;;;;13.75;100.00;101040.53;10503654;28;20419;-60
2023/07/21 05:06:19;;;;;;;;;;;;;;;13.94;100.00;101043.63;10504530;28;19959;-60
2023/07/21 05:11:21;;;;;;;;;;;;;;;13.86;100.00;101045.09;10504387;28;19924;-60
2023/07/21 05:16:23;;;;;;;;;;;;;;;14.04;100.00;101043.00;10504065;28;20480;-60
2023/07/21 05:21:26;;;;;;;;;;;;;;;14.26;100.00;101043.19;10503997;28;19967;-60
2023/07/21 05:26:29;;;;;;;;;;;;;;;14.53;100.00;101033.50;10503917;28;19924;-60
2023/07/21 05:31:32;;;;;;;;;;;;;;;14.64;100.00;101039.72;10503385;28;19925;-60
2023/07/21 05:36:35;;;;;;;;;;;;;;;14.90;100.00;101036.19;10503398;28;19931;-61
2023/07/21 05:41:38;;;;;;;;;;;;;;;14.90;100.00;101034.38;10503122;28;19924;-61
2023/07/21 05:46:40;;;;;;;;;;;;;;;15.22;100.00;101041.75;10502943;28;19951;-61
2023/07/21 05:51:43;;;;;;;;;;;;;;;15.32;100.00;101034.00;10502658;28;20286;-60
2023/07/21 05:56:45;;;;;;;;;;;;;;;15.53;100.00;101042.97;10502499;28;20264;-60
2023/07/21 06:01:47;;;;;;;;;;;;;;;15.81;100.00;101048.03;10502489;28;19931;-60
2023/07/21 06:06:50;;;;;;;;;;;;;;;16.20;100.00;101040.66;10502129;28;19925;-60
2023/07/21 06:11:52;;;;;;;;;;;;;;;16.24;96.52;101035.00;10500733;28;20032;-59
2023/07/21 06:16:55;;;;;;;;;;;;;;;16.52;100.00;101038.13;10501898;28;19924;-60
2023/07/21 06:21:58;;;;;;;;;;;;;;;16.72;93.04;101033.91;10501408;28;19954;-60
2023/07/21 06:27:00;;;;;;;;;;;;;;;16.84;95.57;101027.66;10501317;28;19932;-60
2023/07/21 06:32:02;;;;;;;;;;;;;;;16.90;96.24;101021.06;10500906;28;20275;-60
2023/07/21 06:37:04;;;;;;;;;;;;;;;17.03;92.23;101023.53;10500711;28;19931;-60
2023/07/21 06:42:08;;;;;;;;;;;;;;;17.13;92.60;101032.41;10500561;28;19931;-60
2023/07/21 06:47:11;;;;;;;;;;;;;;;17.48;92.08;101025.19;10500455;28;19928;-60
2023/07/21 06:52:13;;;;;;;;;;;;;;;17.66;94.58;101017.53;10482734;28;20007;-60
2023/07/21 06:57:15;;;;;;;;;;;;;;;18.03;90.43;101009.97;10500035;28;20387;-60
2023/07/21 07:02:18;;;;;;;;;;;;;;;18.12;86.34;101005.69;10499763;28;20379;-60
2023/07/21 07:07:20;;;;;;;;;;;;;;;19.07;83.56;101005.28;10499573;28;20352;-60
2023/07/21 07:12:22;;;;;;;;;;;;;;;19.08;83.18;101004.34;10499441;28;19925;-60
2023/07/21 07:17:24;;;;;;;;;;;;;;;19.32;80.89;101005.72;10499420;28;19924;-60
2023/07/21 07:22:27;;;;;;;;;;;;;;;19.37;76.29;100997.34;10499220;28;19983;-60
2023/07/21 07:27:29;;;;;;;;;;;;;;;19.38;76.38;100999.84;10498988;28;20291;-60
2023/07/21 07:32:31;;;;;;;;;;;;;;;19.42;72.90;101001.25;10498734;28;19930;-60
2023/07/21 07:37:34;;;;;;;;;;;;;;;20.07;73.58;101002.41;10498955;28;19924;-60
2023/07/21 07:42:37;;;;;;;;;;;;;;;20.02;76.73;101002.84;10498620;28;19924;-60
2023/07/21 07:47:40;;;;;;;;;;;;;;;20.10;75.22;101005.63;10498460;28;19925;-61
2023/07/21 07:52:42;;;;;;;;;;;;;;;20.36;71.63;100999.66;10498513;28;19963;-61
2023/07/21 07:57:44;;;;;;;;;;;;;;;20.33;69.60;100999.94;10480574;28;20007;-60
2023/07/21 08:02:47;;;;;;;;;;;;;;;20.39;72.75;101004.66;10498336;28;19931;-61
2023/07/21 08:07:49;;;;;;;;;;;;;;;20.89;68.55;101000.78;10480346;28;20354;-60
2023/07/21 08:12:52;;;;;;;;;;;;;;;21.13;65.59;100995.69;10498261;28;19931;-61
2023/07/21 08:17:54;;;;;;;;;;;;;;;21.43;62.46;100996.25;10497872;28;19924;-61
2023/07/21 08:22:56;;;;;;;;;;;;;;;21.02;63.46;100995.91;10497828;28;19931;-60
2023/07/21 08:28:00;;;;;;;;;;;;;;;21.21;62.99;100997.59;10497540;28;19990;-61
2023/07/21 08:33:02;;;;;;;;;;;;;;;21.00;63.13;101003.22;10481753;28;20394;-61
2023/07/21 08:38:07;;;;;;;;;;;;;;;20.42;64.14;101005.22;10505591;28;20015;-60
2023/07/21 08:43:09;;;;;;;;;;;;;;;20.97;64.45;101001.69;10505338;28;19925;-59
2023/07/21 08:48:16;;;;;;;;;;;;;;;21.78;62.29;101007.06;10505068;28;19935;-60
2023/07/21 08:53:18;;;;;;;;;;;;;;;22.02;63.19;101006.38;10488054;28;19970;-60
2023/07/21 08:58:21;;;;;;;;;;;;;;;22.17;61.62;101002.09;10504740;28;19925;-61
2023/07/21 09:03:26;;;;;;;;;;;;;;;21.47;61.53;101003.00;10504558;28;19925;-60
2023/07/21 09:08:29;;;;;;;;;;;;;;;22.15;60.64;101004.09;10504202;28;20358;-61
2023/07/21 09:13:32;;;;;;;;;;;;;;;22.12;61.36;101006.25;10486710;28;19924;-61
2023/07/21 09:18:43;;;;;;;;;;;;;;;21.57;62.19;101002.91;10504178;28;20003;-61
2023/07/21 09:23:46;;;;;;;;;;;;;;;21.17;62.37;100998.06;10504100;28;19924;-61
2023/07/21 09:28:48;;;;;;;;;;;;;;;21.45;63.41;101002.31;10503764;28;19924;-61
2023/07/21 09:33:51;;;;;;;;;;;;;;;22.16;61.35;101015.63;10503383;28;20355;-61
2023/07/21 09:38:53;;;;;;;;;;;;;;;22.49;58.83;101005.13;10503433;28;19930;-61
2023/07/21 09:43:55;;;;;;;;;;;;;;;23.16;57.25;101000.63;10502876;28;19924;-61
2023/07/21 09:48:58;;;;;;;;;;;;;;;23.73;56.43;100986.41;10502780;28;20287;-60
2023/07/21 09:54:00;;;;;;;;;;;;;;;24.39;53.29;100990.75;10502669;28;20057;-61
2023/07/21 09:59:07;;;;;;;;;;;;;;;25.37;51.14;100979.47;10484683;28;19933;-61
2023/07/21 10:04:09;;;;;;;;;;;;;;;24.82;50.57;100980.53;10484815;28;19925;-61
2023/07/21 10:09:11;;;;;;;;;;;;;;;24.92;46.73;100978.44;10484368;28;19928;-61
2023/07/21 10:14:30;;;;;;;;;;;;;;;25.94;51.55;100975.38;10484277;28;19924;-61
2023/07/21 10:19:42;;;;;;;;;;;;;;;25.01;48.39;100963.97;10483844;28;19924;-61
2023/07/21 10:24:47;;;;;;;;;;;;;;;24.69;50.64;100966.88;10484092;28;19924;-61
2023/07/21 10:29:53;;;;;;;;;;;;;;;23.80;52.65;100977.72;10483727;28;20329;-61
2023/07/21 10:34:55;;;;;;;;;;;;;;;21.99;57.16;100972.88;10483150;28;20363;-61
2023/07/21 10:39:59;;;;;;;;;;;;;;;22.01;61.06;100986.06;10500719;28;19931;-61
2023/07/21 10:45:03;;;;;;;;;;;;;;;21.05;68.08;100989.47;10500371;28;19931;-61
2023/07/21 10:50:05;;;;;;;;;;;;;;;20.43;73.51;101000.72;10482731;28;19931;-61
2023/07/21 10:55:08;;;;;;;;;;;;;;;20.48;77.12;100995.81;10499691;28;20272;-62
2023/07/21 11:00:11;;;;;;;;;;;;;;;20.72;83.21;100995.28;10499966;28;20525;-62
2023/07/21 11:05:14;;;;;;;;;;;;;;;20.52;81.32;100993.69;10499841;28;19925;-61
2023/07/21 11:10:17;;;;;;;;;;;;;;;20.67;79.60;100983.41;10465277;28;19924;-62
2023/07/21 11:15:19;;;;;;;;;;;;;;;21.89;76.24;100970.31;10481775;28;19924;-62
2023/07/21 11:20:21;;;;;;;;;;;;;;;24.11;67.34;100969.81;10499289;28;19966;-62
2023/07/21 11:25:23;;;;;;;;;;;;;;;24.38;67.19;100965.84;10481386;28;19947;-62
2023/07/21 11:30:26;;;;;;;;;;;;;;;24.91;61.71;100959.88;10498957;28;20021;-62
2023/07/21 11:35:32;;;;;;;;;;;;;;;25.01;57.20;100947.06;10499101;28;19931;-61
2023/07/21 11:40:35;;;;;;;;;;;;;;;24.33;60.10;100948.66;10498572;28;19931;-61
2023/07/21 11:45:39;;;;;;;;;;;;;;;24.73;57.47;100947.63;10480847;28;19932;-61
2023/07/21 11:50:49;;;;;;;;;;;;;;;24.00;59.63;100957.63;10498544;28;20019;-62
2023/07/21 11:55:52;;;;;;;;;;;;;;;23.53;59.46;100961.88;10486821;22;20023;-62
2023/07/21 12:00:54;;;;;;;;;;;;;;;22.96;60.40;100946.69;10498420;28;19970;-62
2023/07/21 12:05:56;;;;;;;;;;;;;;;22.63;62.08;100946.63;10463918;28;19931;-62
2023/07/21 12:10:59;;;;;;;;;;;;;;;22.22;64.47;100956.31;10505407;28;19930;-62
2023/07/21 12:16:01;;;;;;;;;;;;;;;20.50;64.72;100993.00;10506568;28;20360;-62
2023/07/21 12:21:03;;;;;;;;;;;;;;;20.09;68.71;101003.09;10506651;28;19956;-61
2023/07/21 12:26:08;;;;;;;;;;;;;;;19.51;69.20;101004.88;10506211;28;20367;-63
2023/07/21 12:31:11;;;;;;;;;;;;;;;19.72;71.98;100999.41;10505896;28;20448;-62
2023/07/21 12:36:14;;;;;;;;;;;;;;;19.42;71.27;100995.94;10505829;28;20294;-62
2023/07/21 12:41:16;;;;;;;;;;;;;;;19.72;70.22;100994.09;10505534;28;20294;-63
2023/07/21 12:46:19;;;;;;;;;;;;;;;19.18;69.30;100990.22;10505369;28;19978;-63
2023/07/21 12:51:23;;;;;;;;;;;;;;;19.44;68.96;100999.28;10505035;28;20358;-63
2023/07/21 12:56:25;;;;;;;;;;;;;;;19.60;68.40;100982.78;10504764;28;19925;-63
2023/07/21 13:01:28;;;;;;;;;;;;;;;20.02;65.66;100997.53;10504922;28;19928;-63
2023/07/21 13:06:30;;;;;;;;;;;;;;;19.77;63.72;100996.31;10504598;28;20031;-63
2023/07/21 13:11:36;;;;;;;;;;;;;;;19.71;64.75;101004.84;10504768;28;19928;-63
2023/07/21 13:16:38;;;;;;;;;;;;;;;19.50;64.71;101019.13;10504226;28;19931;-63
2023/07/21 13:21:41;;;;;;;;;;;;;;;19.34;65.66;101018.88;10503890;28;19939;-63
2023/07/21 13:26:43;;;;;;;;;;;;;;;19.07;68.37;101020.38;10504035;28;19925;-63
2023/07/21 13:31:45;;;;;;;;;;;;;;;19.02;70.36;101031.41;10503534;28;20015;-63
2023/07/21 13:36:48;;;;;;;;;;;;;;;18.83;73.24;101048.13;10503787;28;19931;-63
2023/07/21 13:41:50;;;;;;;;;;;;;;;18.52;77.15;101039.34;10485532;28;19924;-63
2023/07/21 13:46:52;;;;;;;;;;;;;;;18.57;79.15;101042.44;10503428;28;19928;-63
2023/07/21 13:51:54;;;;;;;;;;;;;;;18.55;83.47;101044.38;10485215;28;19925;-63
2023/07/21 13:56:57;;;;;;;;;;;;;;;18.38;83.78;101043.19;10502624;28;20264;-63
2023/07/21 14:02:00;;;;;;;;;;;;;;;18.68;83.20;101038.84;10502533;28;19963;-63
2023/07/21 14:07:02;;;;;;;;;;;;;;;18.80;84.13;101034.28;10502407;28;19924;-63
2023/07/21 14:12:05;;;;;;;;;;;;;;;19.11;83.86;101038.56;10502415;28;20019;-63
2023/07/21 14:17:07;;;;;;;;;;;;;;;19.27;84.09;101043.31;10502058;28;20007;-63
2023/07/21 14:22:10;;;;;;;;;;;;;;;21.95;72.76;101035.47;10501677;28;19928;-63
2023/07/21 14:27:12;;;;;;;;;;;;;;;22.82;66.33;101030.91;10483986;28;20019;-63
2023/07/21 14:32:14;;;;;;;;;;;;;;;21.54;65.12;101019.22;10500276;28;19925;-63
2023/07/21 14:37:16;;;;;;;;;;;;;;;21.10;66.12;101027.13;10501025;28;20359;-63
2023/07/21 14:42:19;;;;;;;;;;;;;;;20.90;68.57;101027.25;10500845;28;19925;-63
2023/07/21 14:47:22;;;;;;;;;;;;;;;21.53;67.93;101033.50;10483151;28;20469;-63
2023/07/21 14:52:24;;;;;;;;;;;;;;;21.04;67.51;101038.34;10500384;28;19924;-63
2023/07/21 14:57:26;;;;;;;;;;;;;;;20.50;70.28;101043.53;10500030;28;19924;-63
2023/07/21 15:02:29;;;;;;;;;;;;;;;20.91;69.18;101022.75;10499985;28;20337;-63
2023/07/21 15:07:31;;;;;;;;;;;;;;;21.29;70.60;101024.28;10482074;28;20359;-63
2023/07/21 15:12:33;;;;;;;;;;;;;;;21.32;69.86;101031.16;10482003;28;19925;-64
2023/07/21 15:17:36;;;;;;;;;;;;;;;21.32;67.86;101021.31;10499419;28;19947;-63
2023/07/21 15:22:38;;;;;;;;;;;;;;;20.42;68.47;101026.50;10499446;28;19959;-63
2023/07/21 15:27:40;;;;;;;;;;;;;;;20.59;66.92;101032.84;10481416;28;20359;-64
2023/07/21 15:32:45;;;;;;;;;;;;;;;20.86;65.13;101038.31;10498271;28;21602;-63
2023/07/21 15:37:48;;;;;;;;;;;;;;;21.86;60.51;101041.75;10498986;28;19932;-64
2023/07/21 15:42:51;;;;;;;;;;;;;;;21.20;61.69;101030.53;10498660;28;19960;-63
2023/07/21 15:47:53;;;;;;;;;;;;;;;20.35;63.91;101033.38;10498632;28;20290;-63
2023/07/21 15:52:56;;;;;;;;;;;;;;;19.87;63.32;101042.34;10498565;28;19924;-63
2023/07/21 15:57:58;;;;;;;;;;;;;;;19.99;62.73;101043.00;10498217;28;20283;-63
2023/07/21 16:03:00;;;;;;;;;;;;;;;20.42;63.90;101049.56;10498301;28;19925;-63
2023/07/21 16:08:03;;;;;;;;;;;;;;;20.57;60.22;101041.94;10498219;28;19937;-63
2023/07/21 16:13:05;;;;;;;;;;;;;;;20.95;59.01;101043.59;10498268;28;19931;-63
2023/07/21 16:18:08;;;;;;;;;;;;;;;20.23;57.01;101051.31;10498096;28;19931;-63
2023/07/21 16:23:11;;;;;;;;;;;;;;;20.34;56.32;101050.31;10497930;28;20321;-63
2023/07/21 16:28:13;;;;;;;;;;;;;;;21.19;55.70;101052.81;10497932;28;19935;-63
2023/07/21 16:33:15;;;;;;;;;;;;;;;20.82;54.63;101069.72;10497574;28;20294;-63
2023/07/21 16:38:18;;;;;;;;;;;;;;;21.53;53.13;101060.16;10497811;28;19924;-63
2023/07/21 16:43:20;;;;;;;;;;;;;;;21.31;52.46;101059.56;10497452;28;19968;-63
2023/07/21 16:48:22;;;;;;;;;;;;;;;20.92;53.30;101069.66;10497535;28;19931;-63
2023/07/21 16:53:24;;;;;;;;;;;;;;;20.82;53.24;101072.38;10498056;28;19948;-64
2023/07/21 16:58:27;;;;;;;;;;;;;;;21.15;53.44;101075.41;10504999;28;19924;-63
2023/07/21 17:03:30;;;;;;;;;;;;;;;20.58;52.35;101087.03;10504740;28;20376;-64
2023/07/21 17:08:32;;;;;;;;;;;;;;;20.56;53.34;101080.16;10504560;28;20370;-63
2023/07/21 17:13:35;;;;;;;;;;;;;;;19.94;53.77;101093.94;10504469;28;19924;-63
2023/07/21 17:18:37;;;;;;;;;;;;;;;20.20;54.03;101098.63;10504096;28;19930;-63
2023/07/21 17:23:39;;;;;;;;;;;;;;;19.76;54.12;101106.25;10503986;28;20367;-63
2023/07/21 17:28:42;;;;;;;;;;;;;;;19.18;53.93;101112.28;10503990;28;19932;-63
2023/07/21 17:33:44;;;;;;;;;;;;;;;19.84;54.12;101123.16;10503534;28;20011;-63
2023/07/21 17:38:46;;;;;;;;;;;;;;;19.67;52.98;101123.84;10503432;28;20290;-63
2023/07/21 17:43:48;;;;;;;;;;;;;;;19.78;54.47;101125.53;10503350;28;19930;-63
2023/07/21 17:48:51;;;;;;;;;;;;;;;19.39;55.68;101126.31;10503256;28;19931;-63
2023/07/21 17:53:55;;;;;;;;;;;;;;;19.02;56.01;101126.94;10502757;28;20375;-63
2023/07/21 17:58:58;;;;;;;;;;;;;;;18.92;57.44;101128.72;10484775;28;19925;-63
2023/07/21 18:04:00;;;;;;;;;;;;;;;19.00;57.88;101138.66;10502510;28;19930;-63
2023/07/21 18:09:02;;;;;;;;;;;;;;;18.49;59.14;101141.22;10501154;28;20359;-63
2023/07/21 18:14:05;;;;;;;;;;;;;;;18.34;59.00;101145.13;10484449;28;19924;-63
2023/07/21 18:19:07;;;;;;;;;;;;;;;18.45;60.13;101149.53;10501876;28;19979;-63
2023/07/21 18:24:09;;;;;;;;;;;;;;;18.53;60.18;101144.44;10483866;28;19924;-63
2023/07/21 18:29:12;;;;;;;;;;;;;;;18.60;60.90;101147.41;10501540;28;19924;-64
2023/07/21 18:34:14;;;;;;;;;;;;;;;18.26;60.62;101159.06;10501099;28;20287;-63
2023/07/21 18:39:16;;;;;;;;;;;;;;;18.08;60.74;101165.91;10501180;28;19924;-63
2023/07/21 18:44:18;;;;;;;;;;;;;;;18.01;60.33;101161.09;10500828;28;19925;-63
2023/07/21 18:49:21;;;;;;;;;;;;;;;17.77;61.75;101163.94;10500697;28;19924;-63
2023/07/21 18:54:25;;;;;;;;;;;;;;;17.67;62.01;101170.09;10483013;28;19958;-63
2023/07/21 18:59:27;;;;;;;;;;;;;;;17.82;62.61;101187.41;10457587;28;20016;-63
2023/07/21 19:04:30;;;;;;;;;;;;;;;17.51;63.53;101189.06;10457520;28;19929;-63
2023/07/21 19:09:33;;;;;;;;;;;;;;;17.36;62.53;101193.75;10458385;28;19936;-63
2023/07/21 19:14:35;;;;;;;;;;;;;;;17.31;63.25;101202.06;10458325;28;20020;-63
2023/07/21 19:19:37;;;;;;;;;;;;;;;17.24;63.65;101208.81;10457757;28;19925;-63
2023/07/21 19:24:40;;;;;;;;;;;;;;;17.18;63.39;101209.28;10458042;28;19924;-63
2023/07/21 19:29:42;;;;;;;;;;;;;;;17.18;64.54;101214.56;10457862;28;19971;-63
2023/07/21 19:34:47;;;;;;;;;;;;;;;16.90;65.78;101227.34;10457595;28;19925;-62
2023/07/21 19:39:49;;;;;;;;;;;;;;;17.09;65.96;101227.56;10457633;28;19963;-63
2023/07/21 19:44:51;;;;;;;;;;;;;;;16.86;66.93;101239.09;10457572;28;19931;-63
2023/07/21 19:49:53;;;;;;;;;;;;;;;16.93;67.29;101236.81;10457098;28;20303;-63
2023/07/21 19:54:55;;;;;;;;;;;;;;;16.85;67.59;101242.72;10457021;28;19947;-63
2023/07/21 19:59:58;;;;;;;;;;;;;;;16.93;69.26;101256.19;10490722;28;19931;-63
2023/07/21 20:05:00;;;;;;;;;;;;;;;16.90;69.04;101257.25;10498249;28;20282;-63
2023/07/21 20:10:02;;;;;;;;;;;;;;;17.12;68.95;101258.25;10497976;28;19970;-64
2023/07/21 20:15:05;;;;;;;;;;;;;;;17.05;69.51;101268.47;10498011;28;19971;-62
2023/07/21 20:20:07;;;;;;;;;;;;;;;17.07;70.58;101266.53;10497951;28;19935;-63
2023/07/21 20:25:11;;;;;;;;;;;;;;;17.22;69.85;101266.31;10498140;28;19999;-63
2023/07/21 20:30:14;;;;;;;;;;;;;;;16.98;71.95;101271.69;10501780;28;19967;-62
2023/07/21 20:35:16;;;;;;;;;;;;;;;17.08;70.41;101257.66;10505855;28;20284;-62
2023/07/21 20:40:18;;;;;;;;;;;;;;;17.19;71.76;101266.53;10505661;28;19925;-63
2023/07/21 20:45:21;;;;;;;;;;;;;;;16.97;73.97;101275.31;10505590;28;19925;-63
2023/07/21 20:50:24;;;;;;;;;;;;;;;16.98;73.96;101282.25;10505210;28;19928;-63
2023/07/21 20:55:26;;;;;;;;;;;;;;;17.13;73.32;101285.53;10505073;28;20011;-63
2023/07/21 21:00:28;;;;;;;;;;;;;;;16.95;74.47;101282.53;10504701;28;20291;-63
2023/07/21 21:05:30;;;;;;;;;;;;;;;17.00;74.32;101283.84;10504760;28;19947;-63
2023/07/21 21:10:33;;;;;;;;;;;;;;;16.77;75.25;101282.91;10504431;28;19928;-63
2023/07/21 21:15:35;;;;;;;;;;;;;;;16.98;76.45;101282.25;10504501;28;20180;-62
2023/07/21 21:20:37;;;;;;;;;;;;;;;17.08;75.30;101285.91;10504286;28;19931;-62
2023/07/21 21:25:39;;;;;;;;;;;;;;;17.01;75.77;101287.31;10504159;28;19924;-62
2023/07/21 21:30:42;;;;;;;;;;;;;;;16.65;79.24;101289.97;10485940;28;19971;-62
2023/07/21 21:35:45;;;;;;;;;;;;;;;16.21;81.88;101294.13;10503550;28;19928;-62
2023/07/21 21:40:47;;;;;;;;;;;;;;;16.14;82.72;101295.53;10503237;28;19924;-62
2023/07/21 21:45:49;;;;;;;;;;;;;;;15.90;86.17;101303.44;10503213;28;19931;-63
2023/07/21 21:50:52;;;;;;;;;;;;;;;15.79;85.56;101296.28;10503193;28;20016;-62
2023/07/21 21:55:54;;;;;;;;;;;;;;;15.55;89.11;101296.19;10502744;28;19928;-62
2023/07/21 22:00:56;;;;;;;;;;;;;;;15.31;93.22;101304.88;10502539;28;19930;-62
2023/07/21 22:05:59;;;;;;;;;;;;;;;15.32;91.99;101300.44;10484793;28;19924;-63
2023/07/21 22:11:01;;;;;;;;;;;;;;;15.18;93.28;101304.03;10502177;28;19929;-62
2023/07/21 22:16:04;;;;;;;;;;;;;;;15.42;91.78;101306.78;10502381;28;20036;-62
2023/07/21 22:21:06;;;;;;;;;;;;;;;15.38;92.97;101300.00;10501877;28;19928;-63
2023/07/21 22:26:08;;;;;;;;;;;;;;;15.36;93.19;101294.00;10501823;28;20007;-62
2023/07/21 22:31:14;;;;;;;;;;;;;;;15.18;96.63;101293.47;10501487;28;19931;-63
2023/07/21 22:36:17;;;;;;;;;;;;;;;15.12;96.77;101292.13;10483763;28;19924;-63
2023/07/21 22:41:19;;;;;;;;;;;;;;;15.15;96.75;101291.06;10500900;28;20360;-63
2023/07/21 22:46:22;;;;;;;;;;;;;;;14.82;100.00;101298.50;10500751;28;20368;-63
2023/07/21 22:51:24;;;;;;;;;;;;;;;14.99;99.70;101309.72;10499825;28;20287;-63
2023/07/21 22:56:27;;;;;;;;;;;;;;;14.83;100.00;101307.28;10500266;28;19924;-62
2023/07/21 23:01:29;;;;;;;;;;;;;;;14.93;99.92;101308.34;10500162;28;20020;-63
2023/07/21 23:06:31;;;;;;;;;;;;;;;14.99;100.00;101307.91;10500072;28;20012;-63
2023/07/21 23:11:33;;;;;;;;;;;;;;;15.02;99.71;101309.53;10499876;28;19935;-63
2023/07/21 23:16:36;;;;;;;;;;;;;;;15.27;99.53;101307.84;10499588;28;19925;-63
2023/07/21 23:21:38;;;;;;;;;;;;;;;15.33;97.56;101304.75;10499427;28;19947;-63
2023/07/21 23:26:41;;;;;;;;;;;;;;;15.09;100.00;101304.66;10499255;28;20393;-63
2023/07/21 23:31:43;;;;;;;;;;;;;;;15.12;98.63;101304.47;10499073;28;19925;-63
2023/07/21 23:36:45;;;;;;;;;;;;;;;14.90;100.00;101300.66;10498975;28;19924;-64
2023/07/21 23:41:47;;;;;;;;;;;;;;;15.04;100.00;101304.97;10498940;28;19925;-63
2023/07/21 23:46:49;;;;;;;;;;;;;;;14.70;100.00;101312.53;10498754;28;19963;-63
2023/07/21 23:51:52;;;;;;;;;;;;;;;15.05;100.00;101306.69;10498522;28;20410;-63
2023/07/21 23:56:56;;;;;;;;;;;;;;;15.04;100.00;101297.91;10498309;28;19924;-64
